sensor_id;sensor_type;location;lat;lon;timestamp;P1;durP1;ratioP1;P2;durP2;ratioP2
68579;SDS011;55555;52.136;5.424;2022-07-09T00:01:49;8.83;;;4.53;;
68579;SDS011;55555;52.136;5.424;2022-07-09T00:04:16;10.77;;;4.50;;
68579;SDS011;55555;52.136;5.424;2022-07-09T00:06:43;11.63;;;4.50;;
68579;SDS011;55555;52.136;5.424;2022-07-09T00:09:10;9.75;;;4.55;;
68579;SDS011;55555;52.136;5.424;2022-07-09T00:11:37;11.10;;;4.53;;
68579;SDS011;55555;52.136;5.424;2022-07-09T00:14:04;10.63;;;4.83;;
68579;SDS011;55555;52.136;5.424;2022-07-09T00:16:32;10.02;;;5.10;;
68579;SDS011;55555;52.136;5.424;2022-07-09T00:18:59;8.10;;;4.32;;
68579;SDS011;55555;52.136;5.424;2022-07-09T00:21:26;10.07;;;4.57;;
68579;SDS011;55555;52.136;5.424;2022-07-09T00:23:52;9.63;;;4.10;;
68579;SDS011;55555;52.136;5.424;2022-07-09T00:26:19;9.87;;;5.10;;
68579;SDS011;55555;52.136;5.424;2022-07-09T00:28:46;11.07;;;4.75;;
68579;SDS011;55555;52.136;5.424;2022-07-09T00:31:13;9.32;;;4.28;;
68579;SDS011;55555;52.136;5.424;2022-07-09T00:33:41;9.73;;;4.78;;
68579;SDS011;55555;52.136;5.424;2022-07-09T00:36:07;10.45;;;5.10;;
68579;SDS011;55555;52.136;5.424;2022-07-09T00:38:34;12.03;;;4.50;;
68579;SDS011;55555;52.136;5.424;2022-07-09T00:41:02;11.65;;;4.60;;
68579;SDS011;55555;52.136;5.424;2022-07-09T00:43:29;9.55;;;4.55;;
68579;SDS011;55555;52.136;5.424;2022-07-09T00:45:57;9.38;;;5.00;;
68579;SDS011;55555;52.136;5.424;2022-07-09T00:48:24;8.30;;;4.85;;
68579;SDS011;55555;52.136;5.424;2022-07-09T00:50:51;9.67;;;4.23;;
68579;SDS011;55555;52.136;5.424;2022-07-09T00:53:21;12.38;;;5.18;;
68579;SDS011;55555;52.136;5.424;2022-07-09T00:55:51;9.38;;;4.45;;
68579;SDS011;55555;52.136;5.424;2022-07-09T00:58:20;7.80;;;5.07;;
68579;SDS011;55555;52.136;5.424;2022-07-09T01:00:47;10.38;;;4.90;;
68579;SDS011;55555;52.136;5.424;2022-07-09T01:03:14;9.73;;;5.47;;
68579;SDS011;55555;52.136;5.424;2022-07-09T01:05:42;9.57;;;4.75;;
68579;SDS011;55555;52.136;5.424;2022-07-09T01:08:09;9.65;;;5.22;;
68579;SDS011;55555;52.136;5.424;2022-07-09T01:10:36;13.45;;;5.18;;
68579;SDS011;55555;52.136;5.424;2022-07-09T01:13:04;10.75;;;5.40;;
68579;SDS011;55555;52.136;5.424;2022-07-09T01:15:31;10.67;;;5.50;;
68579;SDS011;55555;52.136;5.424;2022-07-09T01:17:59;10.77;;;5.88;;
68579;SDS011;55555;52.136;5.424;2022-07-09T01:20:26;10.90;;;5.55;;
68579;SDS011;55555;52.136;5.424;2022-07-09T01:22:56;10.48;;;6.13;;
68579;SDS011;55555;52.136;5.424;2022-07-09T01:25:34;11.13;;;6.00;;
68579;SDS011;55555;52.136;5.424;2022-07-09T01:28:06;9.67;;;5.93;;
68579;SDS011;55555;52.136;5.424;2022-07-09T01:30:36;13.25;;;6.90;;
68579;SDS011;55555;52.136;5.424;2022-07-09T01:33:05;11.50;;;6.40;;
68579;SDS011;55555;52.136;5.424;2022-07-09T01:35:33;11.63;;;6.50;;
68579;SDS011;55555;52.136;5.424;2022-07-09T01:38:00;11.23;;;6.57;;
68579;SDS011;55555;52.136;5.424;2022-07-09T01:40:27;13.67;;;6.67;;
68579;SDS011;55555;52.136;5.424;2022-07-09T01:42:54;12.25;;;5.75;;
68579;SDS011;55555;52.136;5.424;2022-07-09T01:45:21;16.05;;;6.13;;
68579;SDS011;55555;52.136;5.424;2022-07-09T01:47:48;12.23;;;6.97;;
68579;SDS011;55555;52.136;5.424;2022-07-09T01:50:15;12.85;;;6.43;;
68579;SDS011;55555;52.136;5.424;2022-07-09T01:52:42;12.10;;;6.33;;
68579;SDS011;55555;52.136;5.424;2022-07-09T01:55:09;13.50;;;7.22;;
68579;SDS011;55555;52.136;5.424;2022-07-09T01:57:36;13.23;;;7.05;;
68579;SDS011;55555;52.136;5.424;2022-07-09T02:00:04;15.50;;;8.20;;
68579;SDS011;55555;52.136;5.424;2022-07-09T02:02:32;14.27;;;8.65;;
68579;SDS011;55555;52.136;5.424;2022-07-09T02:04:59;15.90;;;9.13;;
68579;SDS011;55555;52.136;5.424;2022-07-09T02:07:26;18.00;;;9.07;;
68579;SDS011;55555;52.136;5.424;2022-07-09T02:09:53;16.58;;;9.63;;
68579;SDS011;55555;52.136;5.424;2022-07-09T02:12:20;20.45;;;9.32;;
68579;SDS011;55555;52.136;5.424;2022-07-09T02:14:47;15.48;;;8.25;;
68579;SDS011;55555;52.136;5.424;2022-07-09T02:17:15;20.43;;;10.47;;
68579;SDS011;55555;52.136;5.424;2022-07-09T02:19:42;15.30;;;8.98;;
68579;SDS011;55555;52.136;5.424;2022-07-09T02:22:09;17.55;;;10.68;;
68579;SDS011;55555;52.136;5.424;2022-07-09T02:24:36;16.15;;;9.48;;
68579;SDS011;55555;52.136;5.424;2022-07-09T02:27:04;18.45;;;10.35;;
68579;SDS011;55555;52.136;5.424;2022-07-09T02:29:31;19.27;;;11.27;;
68579;SDS011;55555;52.136;5.424;2022-07-09T02:31:58;17.65;;;10.45;;
68579;SDS011;55555;52.136;5.424;2022-07-09T02:34:25;18.30;;;10.65;;
68579;SDS011;55555;52.136;5.424;2022-07-09T02:36:52;19.80;;;11.30;;
68579;SDS011;55555;52.136;5.424;2022-07-09T02:39:19;17.52;;;10.82;;
68579;SDS011;55555;52.136;5.424;2022-07-09T02:41:46;18.63;;;11.10;;
68579;SDS011;55555;52.136;5.424;2022-07-09T02:44:13;21.70;;;11.60;;
68579;SDS011;55555;52.136;5.424;2022-07-09T02:46:40;19.83;;;11.90;;
68579;SDS011;55555;52.136;5.424;2022-07-09T02:49:07;20.50;;;12.18;;
68579;SDS011;55555;52.136;5.424;2022-07-09T02:51:36;22.55;;;11.85;;
68579;SDS011;55555;52.136;5.424;2022-07-09T02:54:03;22.20;;;12.90;;
68579;SDS011;55555;52.136;5.424;2022-07-09T02:56:31;26.58;;;14.50;;
68579;SDS011;55555;52.136;5.424;2022-07-09T02:58:58;25.63;;;14.93;;
68579;SDS011;55555;52.136;5.424;2022-07-09T03:01:25;29.58;;;17.05;;
68579;SDS011;55555;52.136;5.424;2022-07-09T03:03:52;36.60;;;18.90;;
68579;SDS011;55555;52.136;5.424;2022-07-09T03:06:19;29.00;;;17.17;;
68579;SDS011;55555;52.136;5.424;2022-07-09T03:08:46;30.00;;;17.55;;
68579;SDS011;55555;52.136;5.424;2022-07-09T03:11:14;32.03;;;17.77;;
68579;SDS011;55555;52.136;5.424;2022-07-09T03:13:41;38.15;;;19.65;;
68579;SDS011;55555;52.136;5.424;2022-07-09T03:16:08;34.70;;;19.98;;
68579;SDS011;55555;52.136;5.424;2022-07-09T03:18:35;36.13;;;19.33;;
68579;SDS011;55555;52.136;5.424;2022-07-09T03:21:05;32.50;;;19.55;;
68579;SDS011;55555;52.136;5.424;2022-07-09T03:23:34;34.22;;;19.45;;
68579;SDS011;55555;52.136;5.424;2022-07-09T03:26:03;37.17;;;20.77;;
68579;SDS011;55555;52.136;5.424;2022-07-09T03:28:31;36.47;;;20.38;;
68579;SDS011;55555;52.136;5.424;2022-07-09T03:31:00;36.03;;;20.43;;
68579;SDS011;55555;52.136;5.424;2022-07-09T03:33:28;34.50;;;20.42;;
68579;SDS011;55555;52.136;5.424;2022-07-09T03:35:54;35.25;;;18.70;;
68579;SDS011;55555;52.136;5.424;2022-07-09T03:38:22;35.38;;;19.42;;
68579;SDS011;55555;52.136;5.424;2022-07-09T03:40:50;35.50;;;19.70;;
68579;SDS011;55555;52.136;5.424;2022-07-09T03:43:18;35.00;;;20.60;;
68579;SDS011;55555;52.136;5.424;2022-07-09T03:45:46;34.85;;;20.17;;
68579;SDS011;55555;52.136;5.424;2022-07-09T03:48:13;38.63;;;20.42;;
68579;SDS011;55555;52.136;5.424;2022-07-09T03:50:40;34.05;;;19.52;;
68579;SDS011;55555;52.136;5.424;2022-07-09T03:53:07;32.35;;;19.77;;
68579;SDS011;55555;52.136;5.424;2022-07-09T03:55:34;34.07;;;18.87;;
68579;SDS011;55555;52.136;5.424;2022-07-09T03:58:01;33.65;;;18.50;;
68579;SDS011;55555;52.136;5.424;2022-07-09T04:00:28;32.25;;;18.77;;
68579;SDS011;55555;52.136;5.424;2022-07-09T04:02:55;32.45;;;17.80;;
68579;SDS011;55555;52.136;5.424;2022-07-09T04:05:22;33.72;;;18.33;;
68579;SDS011;55555;52.136;5.424;2022-07-09T04:07:49;32.20;;;17.63;;
68579;SDS011;55555;52.136;5.424;2022-07-09T04:10:16;33.55;;;18.10;;
68579;SDS011;55555;52.136;5.424;2022-07-09T04:12:43;34.85;;;18.83;;
68579;SDS011;55555;52.136;5.424;2022-07-09T04:15:10;37.42;;;19.85;;
68579;SDS011;55555;52.136;5.424;2022-07-09T04:17:37;34.65;;;19.33;;
68579;SDS011;55555;52.136;5.424;2022-07-09T04:20:05;33.60;;;19.87;;
68579;SDS011;55555;52.136;5.424;2022-07-09T04:22:33;36.67;;;19.40;;
68579;SDS011;55555;52.136;5.424;2022-07-09T04:25:00;36.00;;;18.83;;
68579;SDS011;55555;52.136;5.424;2022-07-09T04:27:27;34.10;;;18.88;;
68579;SDS011;55555;52.136;5.424;2022-07-09T04:29:54;35.83;;;18.95;;
68579;SDS011;55555;52.136;5.424;2022-07-09T04:32:21;41.53;;;21.83;;
68579;SDS011;55555;52.136;5.424;2022-07-09T04:34:48;42.85;;;23.25;;
68579;SDS011;55555;52.136;5.424;2022-07-09T04:37:15;43.55;;;22.80;;
68579;SDS011;55555;52.136;5.424;2022-07-09T04:39:42;43.22;;;23.63;;
68579;SDS011;55555;52.136;5.424;2022-07-09T04:42:09;41.47;;;23.38;;
68579;SDS011;55555;52.136;5.424;2022-07-09T04:44:38;42.57;;;22.30;;
68579;SDS011;55555;52.136;5.424;2022-07-09T04:47:05;40.22;;;22.50;;
68579;SDS011;55555;52.136;5.424;2022-07-09T04:49:32;41.85;;;23.15;;
68579;SDS011;55555;52.136;5.424;2022-07-09T04:52:03;44.40;;;23.63;;
68579;SDS011;55555;52.136;5.424;2022-07-09T04:54:31;41.78;;;23.52;;
68579;SDS011;55555;52.136;5.424;2022-07-09T04:56:58;38.63;;;23.33;;
68579;SDS011;55555;52.136;5.424;2022-07-09T04:59:25;38.83;;;22.75;;
68579;SDS011;55555;52.136;5.424;2022-07-09T05:01:52;40.30;;;23.88;;
68579;SDS011;55555;52.136;5.424;2022-07-09T05:04:19;44.70;;;24.42;;
68579;SDS011;55555;52.136;5.424;2022-07-09T05:06:46;43.03;;;23.10;;
68579;SDS011;55555;52.136;5.424;2022-07-09T05:09:13;44.60;;;23.47;;
68579;SDS011;55555;52.136;5.424;2022-07-09T05:11:40;45.58;;;25.38;;
68579;SDS011;55555;52.136;5.424;2022-07-09T05:14:07;42.30;;;23.52;;
68579;SDS011;55555;52.136;5.424;2022-07-09T05:16:34;47.25;;;24.63;;
68579;SDS011;55555;52.136;5.424;2022-07-09T05:19:01;43.60;;;24.63;;
68579;SDS011;55555;52.136;5.424;2022-07-09T05:21:29;47.33;;;24.57;;
68579;SDS011;55555;52.136;5.424;2022-07-09T05:23:56;41.72;;;23.60;;
68579;SDS011;55555;52.136;5.424;2022-07-09T05:26:23;43.25;;;24.60;;
68579;SDS011;55555;52.136;5.424;2022-07-09T05:28:50;39.50;;;23.05;;
68579;SDS011;55555;52.136;5.424;2022-07-09T05:31:17;45.25;;;25.33;;
68579;SDS011;55555;52.136;5.424;2022-07-09T05:34:01;41.03;;;23.70;;
68579;SDS011;55555;52.136;5.424;2022-07-09T05:36:29;37.47;;;22.58;;
68579;SDS011;55555;52.136;5.424;2022-07-09T05:38:56;41.15;;;22.95;;
68579;SDS011;55555;52.136;5.424;2022-07-09T05:41:26;41.70;;;23.20;;
68579;SDS011;55555;52.136;5.424;2022-07-09T05:43:54;33.85;;;21.20;;
68579;SDS011;55555;52.136;5.424;2022-07-09T05:46:21;37.10;;;21.07;;
68579;SDS011;55555;52.136;5.424;2022-07-09T05:48:48;35.28;;;21.48;;
68579;SDS011;55555;52.136;5.424;2022-07-09T05:51:15;34.38;;;20.63;;
68579;SDS011;55555;52.136;5.424;2022-07-09T05:53:43;35.08;;;20.13;;
68579;SDS011;55555;52.136;5.424;2022-07-09T05:56:10;35.25;;;20.45;;
68579;SDS011;55555;52.136;5.424;2022-07-09T05:58:37;34.53;;;20.90;;
68579;SDS011;55555;52.136;5.424;2022-07-09T06:01:04;30.33;;;19.40;;
68579;SDS011;55555;52.136;5.424;2022-07-09T06:03:32;31.92;;;19.15;;
68579;SDS011;55555;52.136;5.424;2022-07-09T06:05:59;26.80;;;18.38;;
68579;SDS011;55555;52.136;5.424;2022-07-09T06:08:27;29.20;;;18.23;;
68579;SDS011;55555;52.136;5.424;2022-07-09T06:10:54;27.03;;;17.30;;
68579;SDS011;55555;52.136;5.424;2022-07-09T06:13:21;28.77;;;16.52;;
68579;SDS011;55555;52.136;5.424;2022-07-09T06:15:47;25.80;;;17.25;;
68579;SDS011;55555;52.136;5.424;2022-07-09T06:18:15;25.60;;;16.42;;
68579;SDS011;55555;52.136;5.424;2022-07-09T06:20:42;24.75;;;15.43;;
68579;SDS011;55555;52.136;5.424;2022-07-09T06:23:09;23.97;;;15.53;;
68579;SDS011;55555;52.136;5.424;2022-07-09T06:25:36;23.70;;;15.50;;
68579;SDS011;55555;52.136;5.424;2022-07-09T06:28:04;22.73;;;14.23;;
68579;SDS011;55555;52.136;5.424;2022-07-09T06:30:32;23.77;;;15.60;;
68579;SDS011;55555;52.136;5.424;2022-07-09T06:33:02;23.20;;;15.13;;
68579;SDS011;55555;52.136;5.424;2022-07-09T06:35:29;20.83;;;13.90;;
68579;SDS011;55555;52.136;5.424;2022-07-09T06:37:57;26.25;;;15.82;;
68579;SDS011;55555;52.136;5.424;2022-07-09T06:40:24;24.27;;;15.35;;
68579;SDS011;55555;52.136;5.424;2022-07-09T06:42:51;21.88;;;13.77;;
68579;SDS011;55555;52.136;5.424;2022-07-09T06:45:18;19.58;;;11.32;;
68579;SDS011;55555;52.136;5.424;2022-07-09T06:47:46;18.03;;;11.10;;
68579;SDS011;55555;52.136;5.424;2022-07-09T06:50:14;14.98;;;9.80;;
68579;SDS011;55555;52.136;5.424;2022-07-09T06:52:41;13.38;;;8.35;;
68579;SDS011;55555;52.136;5.424;2022-07-09T06:55:08;11.30;;;7.53;;
68579;SDS011;55555;52.136;5.424;2022-07-09T06:57:36;12.60;;;7.63;;
68579;SDS011;55555;52.136;5.424;2022-07-09T07:00:04;12.77;;;7.50;;
68579;SDS011;55555;52.136;5.424;2022-07-09T07:02:33;11.55;;;7.20;;
68579;SDS011;55555;52.136;5.424;2022-07-09T07:05:00;11.60;;;6.68;;
68579;SDS011;55555;52.136;5.424;2022-07-09T07:07:28;13.27;;;6.70;;
68579;SDS011;55555;52.136;5.424;2022-07-09T07:09:55;9.98;;;5.50;;
68579;SDS011;55555;52.136;5.424;2022-07-09T07:12:22;10.03;;;5.90;;
68579;SDS011;55555;52.136;5.424;2022-07-09T07:14:49;12.60;;;5.90;;
68579;SDS011;55555;52.136;5.424;2022-07-09T07:17:16;11.93;;;6.40;;
68579;SDS011;55555;52.136;5.424;2022-07-09T07:19:44;12.32;;;6.32;;
68579;SDS011;55555;52.136;5.424;2022-07-09T07:22:11;11.40;;;6.15;;
68579;SDS011;55555;52.136;5.424;2022-07-09T07:24:38;13.03;;;6.40;;
68579;SDS011;55555;52.136;5.424;2022-07-09T07:27:05;12.50;;;6.65;;
68579;SDS011;55555;52.136;5.424;2022-07-09T07:29:32;13.65;;;6.68;;
68579;SDS011;55555;52.136;5.424;2022-07-09T07:31:59;15.60;;;7.80;;
68579;SDS011;55555;52.136;5.424;2022-07-09T07:34:26;13.50;;;8.18;;
68579;SDS011;55555;52.136;5.424;2022-07-09T07:36:53;12.53;;;7.43;;
68579;SDS011;55555;52.136;5.424;2022-07-09T07:39:21;14.05;;;7.85;;
68579;SDS011;55555;52.136;5.424;2022-07-09T07:41:50;14.45;;;8.65;;
68579;SDS011;55555;52.136;5.424;2022-07-09T07:44:17;12.65;;;8.02;;
68579;SDS011;55555;52.136;5.424;2022-07-09T07:46:45;12.48;;;7.35;;
68579;SDS011;55555;52.136;5.424;2022-07-09T07:49:12;13.10;;;6.70;;
68579;SDS011;55555;52.136;5.424;2022-07-09T07:51:39;13.68;;;7.20;;
68579;SDS011;55555;52.136;5.424;2022-07-09T07:54:06;11.85;;;7.22;;
68579;SDS011;55555;52.136;5.424;2022-07-09T07:56:33;11.50;;;6.38;;
68579;SDS011;55555;52.136;5.424;2022-07-09T07:59:02;10.60;;;6.10;;
68579;SDS011;55555;52.136;5.424;2022-07-09T08:01:29;9.53;;;6.40;;
68579;SDS011;55555;52.136;5.424;2022-07-09T08:03:56;12.10;;;6.28;;
68579;SDS011;55555;52.136;5.424;2022-07-09T08:06:23;11.00;;;5.95;;
68579;SDS011;55555;52.136;5.424;2022-07-09T08:08:51;10.70;;;5.47;;
68579;SDS011;55555;52.136;5.424;2022-07-09T08:11:18;10.23;;;5.45;;
68579;SDS011;55555;52.136;5.424;2022-07-09T08:13:45;12.10;;;5.60;;
68579;SDS011;55555;52.136;5.424;2022-07-09T08:16:12;10.07;;;5.47;;
68579;SDS011;55555;52.136;5.424;2022-07-09T08:18:39;10.60;;;5.97;;
68579;SDS011;55555;52.136;5.424;2022-07-09T08:21:07;8.95;;;5.20;;
68579;SDS011;55555;52.136;5.424;2022-07-09T08:23:34;9.25;;;4.63;;
68579;SDS011;55555;52.136;5.424;2022-07-09T08:26:18;11.57;;;6.53;;
68579;SDS011;55555;52.136;5.424;2022-07-09T08:28:48;9.45;;;6.57;;
68579;SDS011;55555;52.136;5.424;2022-07-09T08:31:17;11.82;;;5.30;;
68579;SDS011;55555;52.136;5.424;2022-07-09T08:33:45;8.60;;;4.28;;
68579;SDS011;55555;52.136;5.424;2022-07-09T08:36:12;8.45;;;3.88;;
68579;SDS011;55555;52.136;5.424;2022-07-09T08:38:41;6.77;;;3.20;;
68579;SDS011;55555;52.136;5.424;2022-07-09T08:41:08;7.25;;;2.83;;
68579;SDS011;55555;52.136;5.424;2022-07-09T08:43:36;6.55;;;2.53;;
68579;SDS011;55555;52.136;5.424;2022-07-09T08:46:05;5.07;;;2.47;;
68579;SDS011;55555;52.136;5.424;2022-07-09T08:48:33;5.55;;;2.13;;
68579;SDS011;55555;52.136;5.424;2022-07-09T08:51:03;5.67;;;2.20;;
68579;SDS011;55555;52.136;5.424;2022-07-09T08:53:30;6.10;;;2.08;;
68579;SDS011;55555;52.136;5.424;2022-07-09T08:55:58;8.32;;;2.40;;
68579;SDS011;55555;52.136;5.424;2022-07-09T08:58:25;5.25;;;1.98;;
68579;SDS011;55555;52.136;5.424;2022-07-09T09:00:52;7.75;;;2.50;;
68579;SDS011;55555;52.136;5.424;2022-07-09T09:03:19;7.03;;;2.23;;
68579;SDS011;55555;52.136;5.424;2022-07-09T09:05:59;6.13;;;2.20;;
68579;SDS011;55555;52.136;5.424;2022-07-09T09:08:35;4.32;;;1.85;;
68579;SDS011;55555;52.136;5.424;2022-07-09T09:11:16;7.07;;;2.13;;
68579;SDS011;55555;52.136;5.424;2022-07-09T09:13:50;5.72;;;1.65;;
68579;SDS011;55555;52.136;5.424;2022-07-09T09:16:20;4.57;;;1.73;;
68579;SDS011;55555;52.136;5.424;2022-07-09T09:18:49;7.05;;;2.10;;
68579;SDS011;55555;52.136;5.424;2022-07-09T09:21:19;7.50;;;2.10;;
68579;SDS011;55555;52.136;5.424;2022-07-09T09:23:49;4.22;;;1.90;;
68579;SDS011;55555;52.136;5.424;2022-07-09T09:26:22;6.40;;;2.10;;
68579;SDS011;55555;52.136;5.424;2022-07-09T09:28:52;6.67;;;2.37;;
68579;SDS011;55555;52.136;5.424;2022-07-09T09:31:30;4.82;;;1.70;;
68579;SDS011;55555;52.136;5.424;2022-07-09T09:36:38;4.30;;;1.80;;
68579;SDS011;55555;52.136;5.424;2022-07-09T09:39:24;6.68;;;2.20;;
68579;SDS011;55555;52.136;5.424;2022-07-09T09:41:54;5.47;;;1.80;;
68579;SDS011;55555;52.136;5.424;2022-07-09T09:44:24;5.20;;;1.90;;
68579;SDS011;55555;52.136;5.424;2022-07-09T09:47:02;4.15;;;1.50;;
68579;SDS011;55555;52.136;5.424;2022-07-09T09:49:31;4.57;;;1.40;;
68579;SDS011;55555;52.136;5.424;2022-07-09T09:52:08;5.60;;;1.60;;
68579;SDS011;55555;52.136;5.424;2022-07-09T09:54:37;5.37;;;1.80;;
68579;SDS011;55555;52.136;5.424;2022-07-09T09:57:07;6.53;;;1.80;;
68579;SDS011;55555;52.136;5.424;2022-07-09T09:59:37;4.15;;;1.80;;
68579;SDS011;55555;52.136;5.424;2022-07-09T10:02:11;4.60;;;1.75;;
68579;SDS011;55555;52.136;5.424;2022-07-09T10:04:39;5.22;;;1.45;;
68579;SDS011;55555;52.136;5.424;2022-07-09T10:07:15;4.70;;;1.30;;
68579;SDS011;55555;52.136;5.424;2022-07-09T10:09:52;6.07;;;1.50;;
68579;SDS011;55555;52.136;5.424;2022-07-09T10:15:00;3.50;;;1.38;;
68579;SDS011;55555;52.136;5.424;2022-07-09T10:17:27;3.75;;;1.48;;
68579;SDS011;55555;52.136;5.424;2022-07-09T10:20:04;5.87;;;1.20;;
68579;SDS011;55555;52.136;5.424;2022-07-09T10:22:36;3.60;;;1.00;;
68579;SDS011;55555;52.136;5.424;2022-07-09T10:25:08;3.75;;;1.35;;
68579;SDS011;55555;52.136;5.424;2022-07-09T10:27:44;5.03;;;1.08;;
68579;SDS011;55555;52.136;5.424;2022-07-09T10:30:23;5.63;;;1.63;;
68579;SDS011;55555;52.136;5.424;2022-07-09T10:33:02;5.57;;;1.40;;
68579;SDS011;55555;52.136;5.424;2022-07-09T10:35:50;5.43;;;1.20;;
68579;SDS011;55555;52.136;5.424;2022-07-09T10:38:19;6.65;;;1.40;;
68579;SDS011;55555;52.136;5.424;2022-07-09T10:40:58;4.93;;;1.30;;
68579;SDS011;55555;52.136;5.424;2022-07-09T10:43:39;8.05;;;1.30;;
68579;SDS011;55555;52.136;5.424;2022-07-09T10:46:15;4.13;;;1.30;;
68579;SDS011;55555;52.136;5.424;2022-07-09T10:48:43;3.30;;;1.10;;
68579;SDS011;55555;52.136;5.424;2022-07-09T10:51:16;5.05;;;1.48;;
68579;SDS011;55555;52.136;5.424;2022-07-09T10:53:48;4.30;;;1.20;;
68579;SDS011;55555;52.136;5.424;2022-07-09T10:56:25;3.50;;;0.77;;
68579;SDS011;55555;52.136;5.424;2022-07-09T10:58:52;5.50;;;1.00;;
68579;SDS011;55555;52.136;5.424;2022-07-09T11:01:23;6.50;;;1.15;;
68579;SDS011;55555;52.136;5.424;2022-07-09T11:03:51;5.20;;;1.05;;
68579;SDS011;55555;52.136;5.424;2022-07-09T11:06:20;4.32;;;1.20;;
68579;SDS011;55555;52.136;5.424;2022-07-09T11:08:47;4.53;;;1.05;;
68579;SDS011;55555;52.136;5.424;2022-07-09T11:11:21;4.20;;;1.37;;
68579;SDS011;55555;52.136;5.424;2022-07-09T11:13:49;5.95;;;1.50;;
68579;SDS011;55555;52.136;5.424;2022-07-09T11:16:21;4.63;;;1.13;;
68579;SDS011;55555;52.136;5.424;2022-07-09T11:18:51;4.28;;;1.20;;
68579;SDS011;55555;52.136;5.424;2022-07-09T11:21:23;4.13;;;1.30;;
68579;SDS011;55555;52.136;5.424;2022-07-09T11:23:53;5.27;;;1.40;;
68579;SDS011;55555;52.136;5.424;2022-07-09T11:26:20;4.93;;;1.20;;
68579;SDS011;55555;52.136;5.424;2022-07-09T11:28:48;7.40;;;1.52;;
68579;SDS011;55555;52.136;5.424;2022-07-09T11:31:16;4.45;;;1.40;;
68579;SDS011;55555;52.136;5.424;2022-07-09T11:33:44;4.90;;;1.13;;
68579;SDS011;55555;52.136;5.424;2022-07-09T11:36:36;5.77;;;1.30;;
68579;SDS011;55555;52.136;5.424;2022-07-09T11:39:09;5.85;;;1.15;;
68579;SDS011;55555;52.136;5.424;2022-07-09T11:41:47;4.88;;;1.30;;
68579;SDS011;55555;52.136;5.424;2022-07-09T11:44:25;5.25;;;1.73;;
68579;SDS011;55555;52.136;5.424;2022-07-09T11:47:03;4.90;;;1.27;;
68579;SDS011;55555;52.136;5.424;2022-07-09T11:49:38;7.67;;;1.43;;
68579;SDS011;55555;52.136;5.424;2022-07-09T11:52:19;4.95;;;1.20;;
68579;SDS011;55555;52.136;5.424;2022-07-09T11:54:54;5.95;;;1.50;;
68579;SDS011;55555;52.136;5.424;2022-07-09T11:57:35;6.57;;;0.95;;
68579;SDS011;55555;52.136;5.424;2022-07-09T12:00:04;5.35;;;1.20;;
68579;SDS011;55555;52.136;5.424;2022-07-09T12:02:47;6.87;;;1.30;;
68579;SDS011;55555;52.136;5.424;2022-07-09T12:05:23;3.92;;;1.05;;
68579;SDS011;55555;52.136;5.424;2022-07-09T12:08:01;7.28;;;1.00;;
68579;SDS011;55555;52.136;5.424;2022-07-09T12:10:34;7.45;;;1.25;;
68579;SDS011;55555;52.136;5.424;2022-07-09T12:13:04;3.78;;;1.20;;
68579;SDS011;55555;52.136;5.424;2022-07-09T12:15:32;5.97;;;1.07;;
68579;SDS011;55555;52.136;5.424;2022-07-09T12:18:00;9.02;;;1.50;;
68579;SDS011;55555;52.136;5.424;2022-07-09T12:20:28;4.18;;;0.98;;
68579;SDS011;55555;52.136;5.424;2022-07-09T12:22:57;5.32;;;1.15;;
68579;SDS011;55555;52.136;5.424;2022-07-09T12:25:24;6.90;;;1.95;;
68579;SDS011;55555;52.136;5.424;2022-07-09T12:27:52;5.60;;;1.50;;
68579;SDS011;55555;52.136;5.424;2022-07-09T12:30:19;7.03;;;1.20;;
68579;SDS011;55555;52.136;5.424;2022-07-09T12:32:46;4.85;;;1.05;;
68579;SDS011;55555;52.136;5.424;2022-07-09T12:35:14;5.80;;;1.50;;
68579;SDS011;55555;52.136;5.424;2022-07-09T12:37:42;3.45;;;1.08;;
68579;SDS011;55555;52.136;5.424;2022-07-09T12:40:10;3.93;;;1.20;;
68579;SDS011;55555;52.136;5.424;2022-07-09T12:42:38;7.03;;;1.40;;
68579;SDS011;55555;52.136;5.424;2022-07-09T12:45:06;3.97;;;0.90;;
68579;SDS011;55555;52.136;5.424;2022-07-09T12:47:36;4.88;;;1.05;;
68579;SDS011;55555;52.136;5.424;2022-07-09T12:50:04;4.25;;;1.10;;
68579;SDS011;55555;52.136;5.424;2022-07-09T12:52:32;4.97;;;1.47;;
68579;SDS011;55555;52.136;5.424;2022-07-09T12:55:00;3.83;;;1.10;;
68579;SDS011;55555;52.136;5.424;2022-07-09T12:57:28;8.73;;;1.52;;
68579;SDS011;55555;52.136;5.424;2022-07-09T12:59:56;5.22;;;1.50;;
68579;SDS011;55555;52.136;5.424;2022-07-09T13:02:23;6.15;;;1.27;;
68579;SDS011;55555;52.136;5.424;2022-07-09T13:04:51;9.20;;;1.13;;
68579;SDS011;55555;52.136;5.424;2022-07-09T13:07:19;5.38;;;0.93;;
68579;SDS011;55555;52.136;5.424;2022-07-09T13:09:46;5.40;;;1.30;;
68579;SDS011;55555;52.136;5.424;2022-07-09T13:12:14;5.35;;;1.50;;
68579;SDS011;55555;52.136;5.424;2022-07-09T13:14:41;6.22;;;0.93;;
68579;SDS011;55555;52.136;5.424;2022-07-09T13:17:08;5.50;;;1.30;;
68579;SDS011;55555;52.136;5.424;2022-07-09T13:19:55;6.22;;;0.93;;
68579;SDS011;55555;52.136;5.424;2022-07-09T13:22:22;3.60;;;0.93;;
68579;SDS011;55555;52.136;5.424;2022-07-09T13:24:49;4.57;;;1.30;;
68579;SDS011;55555;52.136;5.424;2022-07-09T13:27:16;7.53;;;1.58;;
68579;SDS011;55555;52.136;5.424;2022-07-09T13:29:45;5.97;;;1.30;;
68579;SDS011;55555;52.136;5.424;2022-07-09T13:32:12;6.68;;;2.30;;
68579;SDS011;55555;52.136;5.424;2022-07-09T13:34:47;5.13;;;1.00;;
68579;SDS011;55555;52.136;5.424;2022-07-09T13:37:16;6.30;;;1.40;;
68579;SDS011;55555;52.136;5.424;2022-07-09T13:39:44;6.20;;;1.50;;
68579;SDS011;55555;52.136;5.424;2022-07-09T13:42:11;6.10;;;2.00;;
68579;SDS011;55555;52.136;5.424;2022-07-09T13:44:38;9.55;;;2.17;;
68579;SDS011;55555;52.136;5.424;2022-07-09T13:47:05;10.60;;;2.00;;
68579;SDS011;55555;52.136;5.424;2022-07-09T13:49:32;11.55;;;2.13;;
68579;SDS011;55555;52.136;5.424;2022-07-09T13:51:59;9.40;;;1.90;;
68579;SDS011;55555;52.136;5.424;2022-07-09T13:54:26;10.00;;;2.00;;
68579;SDS011;55555;52.136;5.424;2022-07-09T13:56:54;9.32;;;2.17;;
68579;SDS011;55555;52.136;5.424;2022-07-09T13:59:22;6.85;;;1.90;;
68579;SDS011;55555;52.136;5.424;2022-07-09T14:01:49;9.70;;;1.80;;
68579;SDS011;55555;52.136;5.424;2022-07-09T14:04:16;11.25;;;1.92;;
68579;SDS011;55555;52.136;5.424;2022-07-09T14:06:44;8.33;;;1.57;;
68579;SDS011;55555;52.136;5.424;2022-07-09T14:09:13;7.72;;;1.83;;
68579;SDS011;55555;52.136;5.424;2022-07-09T14:11:43;7.63;;;1.90;;
68579;SDS011;55555;52.136;5.424;2022-07-09T14:14:10;7.22;;;1.50;;
68579;SDS011;55555;52.136;5.424;2022-07-09T14:16:37;9.52;;;2.08;;
68579;SDS011;55555;52.136;5.424;2022-07-09T14:19:04;6.70;;;1.60;;
68579;SDS011;55555;52.136;5.424;2022-07-09T14:21:31;6.72;;;1.65;;
68579;SDS011;55555;52.136;5.424;2022-07-09T14:23:58;7.43;;;1.58;;
68579;SDS011;55555;52.136;5.424;2022-07-09T14:26:25;8.88;;;1.50;;
68579;SDS011;55555;52.136;5.424;2022-07-09T14:28:52;8.27;;;1.70;;
68579;SDS011;55555;52.136;5.424;2022-07-09T14:31:19;6.37;;;1.80;;
68579;SDS011;55555;52.136;5.424;2022-07-09T14:33:46;6.32;;;1.83;;
68579;SDS011;55555;52.136;5.424;2022-07-09T14:36:13;5.53;;;1.30;;
68579;SDS011;55555;52.136;5.424;2022-07-09T14:38:41;7.68;;;1.40;;
68579;SDS011;55555;52.136;5.424;2022-07-09T14:41:08;8.07;;;1.80;;
68579;SDS011;55555;52.136;5.424;2022-07-09T14:43:35;5.97;;;1.40;;
68579;SDS011;55555;52.136;5.424;2022-07-09T14:46:05;5.57;;;1.35;;
68579;SDS011;55555;52.136;5.424;2022-07-09T14:48:32;7.75;;;1.55;;
68579;SDS011;55555;52.136;5.424;2022-07-09T14:51:01;6.07;;;1.50;;